Aviation weather information 2021-09-22 14:09 UTC

TAF(FCEO32)
FCEO32 EETN 221200
TAF EEKA 221200Z 2213/2219 VRB02KT 9999 SCT020 PROB40 TEMPO
     2217/2219 2000 BR BKN004=
FCEO32 EETN 221400
TAF EEKE 221400Z 2215/2221 VRB02KT 9999 SCT025 PROB40 TEMPO
     2217/2221 2000 BR BKN004=

TAF(FTEO31)
FTEO31 EETN 221100
TAF EETN 221110Z 2212/2312 05005KT 9999 SCT015 BKN025 PROB40
     TEMPO 2221/2304 2000 BR BKN004 BECMG 2306/2308 15012KT=

TAF(FTEO33)
FTEO33 EEEI 221100
TAF EEEI 221100Z 2212/2312 04005KT 9999 SCT015 BKN025 BECMG
     2221/2301 16005KT TEMPO 2221/2303 2000 BR MIFG BKN003 TEMPO
     2309/2312 18015G25KT= 

Weather observation (METAR/SPECI)
METAR EETN 221350Z 05003KT 9999 SCT023 OVC027 10/05 Q1020 NOSIG=
METAR EEEI 221350Z 08005KT 9999 SCT030 11/05 Q1021 NOSIG=
METAR EETU 221350Z 02005KT 340V050 9999 FEW035 11/04 Q1019=
METAR EEPU 221350Z NIL=
METAR EEKE 221350Z 19005KT 170V230 9999 SCT036 11/05 Q1021=
METAR EEKA 221350Z 36004KT CAVOK 09/05 Q1021=